createdAt,value
2018-07-17T00:00:09.357Z,100597.05
2018-07-17T00:02:38.561Z,100595.32
2018-07-17T00:05:08.789Z,100595.13
2018-07-17T00:07:38.122Z,100595.96
2018-07-17T00:10:07.728Z,100595.69
2018-07-17T00:12:37.128Z,100595.95
2018-07-17T00:15:06.561Z,100601.17
2018-07-17T00:17:35.949Z,100594.20
2018-07-17T00:20:05.033Z,100600.02
2018-07-17T00:22:34.133Z,100600.42
2018-07-17T00:25:03.406Z,100605.55
2018-07-17T00:27:32.544Z,100605.34
2018-07-17T00:30:01.632Z,100598.67
2018-07-17T00:32:30.719Z,100600.56
2018-07-17T00:34:59.891Z,100602.51
2018-07-17T00:37:28.986Z,100595.69
2018-07-17T00:39:58.081Z,100598.17
2018-07-17T00:42:27.169Z,100601.41
2018-07-17T00:44:56.249Z,100591.21
2018-07-17T00:47:25.321Z,100589.43
2018-07-17T00:49:54.397Z,100583.21
2018-07-17T00:52:23.485Z,100586.17
2018-07-17T00:54:52.572Z,100578.62
2018-07-17T00:57:21.662Z,100580.88
2018-07-17T00:59:50.756Z,100578.71
2018-07-17T01:02:25.108Z,100583.13
2018-07-17T01:04:59.559Z,100587.48
2018-07-17T01:07:34.033Z,100581.77
2018-07-17T01:10:08.484Z,100582.72
2018-07-17T01:12:36.721Z,100587.54
2018-07-17T01:15:10.199Z,100586.37
2018-07-17T01:17:39.713Z,100582.21
2018-07-17T01:20:08.834Z,100582.50
2018-07-17T01:22:37.945Z,100588.50
2018-07-17T01:25:07.051Z,100588.30
2018-07-17T01:27:36.152Z,100592.94
2018-07-17T01:30:05.296Z,100591.27
2018-07-17T01:32:34.373Z,100586.83
2018-07-17T01:35:03.507Z,100595.77
2018-07-17T01:37:32.593Z,100588.52
2018-07-17T01:40:01.674Z,100596.77
2018-07-17T01:42:30.774Z,100593.81
2018-07-17T01:44:59.854Z,100590.64
2018-07-17T01:47:28.941Z,100592.55
2018-07-17T01:49:58.056Z,100588.46
2018-07-17T01:52:27.153Z,100593.42
2018-07-17T01:54:56.236Z,100592.67
2018-07-17T01:57:25.337Z,100594.14
2018-07-17T01:59:54.421Z,100595.05
2018-07-17T02:02:23.520Z,100601.92
2018-07-17T02:04:52.686Z,100594.92
2018-07-17T02:07:21.717Z,100597.16
2018-07-17T02:09:50.785Z,100599.41
2018-07-17T02:12:19.890Z,100594.78
2018-07-17T02:14:48.964Z,100595.05
2018-07-17T02:17:18.501Z,100596.91
2018-07-17T02:19:47.604Z,100595.38
2018-07-17T02:22:16.701Z,100592.69
2018-07-17T02:24:45.783Z,100586.53
2018-07-17T02:27:14.869Z,100586.33
2018-07-17T02:29:44.017Z,100586.33
2018-07-17T02:32:13.105Z,100592.97
2018-07-17T02:34:42.350Z,100585.20
2018-07-17T02:37:11.453Z,100574.61
2018-07-17T02:39:40.563Z,100575.66
2018-07-17T02:42:09.756Z,100580.48
2018-07-17T02:44:38.820Z,100583.19
2018-07-17T02:47:07.905Z,100585.47
2018-07-17T02:49:36.980Z,100586.99
2018-07-17T02:52:06.113Z,100583.13
2018-07-17T02:54:35.215Z,100579.11
2018-07-17T02:57:04.304Z,100576.41
2018-07-17T02:59:33.401Z,100578.97
2018-07-17T03:02:09.162Z,100576.86
2018-07-17T03:04:38.258Z,100583.27
2018-07-17T03:07:07.483Z,100588.26
2018-07-17T03:09:36.473Z,100580.80
2018-07-17T03:12:06.125Z,100587.86
2018-07-17T03:14:35.201Z,100588.02
2018-07-17T03:17:04.285Z,100591.30
2018-07-17T03:19:33.406Z,100598.27
2018-07-17T03:22:02.522Z,100605.69
2018-07-17T03:24:31.645Z,100603.61
2018-07-17T03:27:00.705Z,100610.25
2018-07-17T03:29:29.804Z,100610.16
2018-07-17T03:31:58.906Z,100605.95
2018-07-17T03:34:27.969Z,100613.45
2018-07-17T03:36:57.109Z,100621.84
2018-07-17T03:39:26.241Z,100621.86
2018-07-17T03:41:55.335Z,100633.37
2018-07-17T03:44:24.468Z,100635.64
2018-07-17T03:46:53.566Z,100629.97
2018-07-17T03:49:22.661Z,100631.53
2018-07-17T03:51:51.751Z,100631.86
2018-07-17T03:54:20.837Z,100630.83
2018-07-17T03:56:49.977Z,100639.92
2018-07-17T03:59:19.134Z,100644.53
2018-07-17T04:01:48.217Z,100653.63
2018-07-17T04:04:17.572Z,100647.75
2018-07-17T04:06:46.672Z,100642.14
2018-07-17T04:09:15.697Z,100636.59
2018-07-17T04:11:44.785Z,100644.09
2018-07-17T04:14:13.885Z,100661.55
2018-07-17T04:16:52.361Z,100655.41
2018-07-17T04:19:22.234Z,100660.89
2018-07-17T04:21:52.324Z,100655.49
2018-07-17T04:24:22.669Z,100655.66
2018-07-17T04:26:52.178Z,100661.34
2018-07-17T04:29:21.292Z,100652.30
2018-07-17T04:31:50.464Z,100655.86
2018-07-17T04:34:19.595Z,100656.81
2018-07-17T04:36:48.730Z,100661.06
2018-07-17T04:39:17.821Z,100664.27
2018-07-17T04:41:46.913Z,100672.48
2018-07-17T04:44:16.020Z,100667.13
2018-07-17T04:46:45.110Z,100660.84
2018-07-17T04:49:14.190Z,100676.06
2018-07-17T04:51:43.264Z,100678.97
2018-07-17T04:54:12.349Z,100680.41
2018-07-17T04:56:41.467Z,100687.41
2018-07-17T04:59:10.611Z,100683.45
2018-07-17T05:01:39.809Z,100698.61
2018-07-17T05:04:08.833Z,100690.62
2018-07-17T05:06:37.913Z,100689.30
2018-07-17T05:09:08.461Z,100690.95
2018-07-17T05:11:37.577Z,100694.70
2018-07-17T05:14:06.685Z,100694.20
2018-07-17T05:16:35.784Z,100687.12
2018-07-17T05:19:05.049Z,100694.95
2018-07-17T05:21:34.218Z,100698.56
2018-07-17T05:24:03.243Z,100699.67
2018-07-17T05:26:32.353Z,100695.19
2018-07-17T05:29:01.597Z,100699.33
2018-07-17T05:31:30.641Z,100705.37
2018-07-17T05:33:59.860Z,100699.14
2018-07-17T05:36:29.038Z,100701.16
2018-07-17T05:38:58.126Z,100705.92
2018-07-17T05:41:27.217Z,100707.88
2018-07-17T05:43:56.324Z,100706.87
2018-07-17T05:46:25.488Z,100705.88
2018-07-17T05:48:54.593Z,100714.47
2018-07-17T05:51:23.681Z,100713.77
2018-07-17T05:53:52.803Z,100716.09
2018-07-17T05:56:21.965Z,100718.41
2018-07-17T05:58:51.036Z,100720.22
2018-07-17T06:01:20.125Z,100712.30
2018-07-17T06:03:49.209Z,100714.56
2018-07-17T06:06:18.313Z,100713.00
2018-07-17T06:08:49.173Z,100719.41
2018-07-17T06:11:18.261Z,100722.50
2018-07-17T06:13:47.345Z,100721.73
2018-07-17T06:16:16.563Z,100719.64
2018-07-17T06:18:45.674Z,100725.23
2018-07-17T06:21:14.793Z,100716.97
2018-07-17T06:23:43.897Z,100724.16
2018-07-17T06:26:13.005Z,100732.86
2018-07-17T06:28:42.090Z,100735.26
2018-07-17T06:31:11.227Z,100728.42
2018-07-17T06:33:40.329Z,100738.17
2018-07-17T06:36:09.498Z,100734.72
2018-07-17T06:38:38.685Z,100729.29
2018-07-17T06:41:07.781Z,100727.91
2018-07-17T06:43:37.465Z,100730.28
2018-07-17T06:46:06.646Z,100735.08
2018-07-17T06:48:35.796Z,100732.69
2018-07-17T06:51:04.889Z,100730.45
2018-07-17T06:53:34.053Z,100727.52
2018-07-17T06:56:03.133Z,100729.84
2018-07-17T06:58:32.237Z,100729.94
2018-07-17T07:01:01.319Z,100734.89
2018-07-17T07:03:31.317Z,100732.59
2018-07-17T07:06:00.418Z,100738.10
2018-07-17T07:08:29.641Z,100732.94
2018-07-17T07:10:58.869Z,100736.04
2018-07-17T07:13:28.026Z,100740.18
2018-07-17T07:15:57.157Z,100746.79
2018-07-17T07:18:26.261Z,100742.21
2018-07-17T07:20:55.361Z,100741.66
2018-07-17T07:23:24.555Z,100739.11
2018-07-17T07:25:53.629Z,100737.96
2018-07-17T07:28:22.709Z,100741.20
2018-07-17T07:30:53.075Z,100732.84
2018-07-17T07:33:22.473Z,100735.84
2018-07-17T07:35:51.603Z,100736.72
2018-07-17T07:38:20.721Z,100729.59
2018-07-17T07:40:50.776Z,100733.88
2018-07-17T07:43:22.018Z,100730.83
2018-07-17T07:45:51.117Z,100731.12
2018-07-17T07:48:20.272Z,100736.16
2018-07-17T07:50:49.466Z,100731.17
2018-07-17T07:53:18.573Z,100732.33
2018-07-17T07:55:47.800Z,100730.00
2018-07-17T07:58:17.014Z,100728.93
2018-07-17T08:00:46.169Z,100730.55
2018-07-17T08:03:15.296Z,100728.35
2018-07-17T08:05:44.417Z,100736.27
2018-07-17T08:08:13.521Z,100731.49
2018-07-17T08:10:42.734Z,100740.06
2018-07-17T08:13:11.835Z,100736.27
2018-07-17T08:15:40.929Z,100739.01
2018-07-17T08:18:10.050Z,100739.46
2018-07-17T08:20:39.141Z,100740.30
2018-07-17T08:23:08.286Z,100739.55
2018-07-17T08:25:37.397Z,100739.22
2018-07-17T08:28:06.505Z,100735.84
2018-07-17T08:30:35.631Z,100740.27
2018-07-17T08:33:04.749Z,100744.88
2018-07-17T08:35:33.851Z,100741.61
2018-07-17T08:38:02.949Z,100746.25
2018-07-17T08:40:32.059Z,100739.49
2018-07-17T08:43:01.192Z,100741.27
2018-07-17T08:45:30.334Z,100743.70
2018-07-17T08:47:59.445Z,100748.30
2018-07-17T08:50:28.553Z,100748.82
2018-07-17T08:52:57.693Z,100750.05
2018-07-17T08:55:26.841Z,100751.84
2018-07-17T08:57:56.012Z,100759.10
2018-07-17T09:00:25.203Z,100754.31
2018-07-17T09:02:55.193Z,100752.17
2018-07-17T09:05:24.325Z,100751.98
2018-07-17T09:07:53.453Z,100759.70
2018-07-17T09:10:22.549Z,100757.39
2018-07-17T09:12:51.726Z,100756.13
2018-07-17T09:15:20.924Z,100759.11
2018-07-17T09:17:50.541Z,100758.73
2018-07-17T09:20:19.853Z,100762.54
2018-07-17T09:22:48.990Z,100764.45
2018-07-17T09:25:18.238Z,100762.28
2018-07-17T09:27:47.390Z,100762.14
2018-07-17T09:30:16.557Z,100762.84
2018-07-17T09:32:45.649Z,100759.34
2018-07-17T09:35:15.141Z,100762.36
2018-07-17T09:37:44.412Z,100761.88
2018-07-17T09:40:13.566Z,100758.63
2018-07-17T09:42:42.698Z,100764.97
2018-07-17T09:45:11.801Z,100768.48
2018-07-17T09:47:41.001Z,100762.25
2018-07-17T09:50:10.141Z,100764.05
2018-07-17T09:52:39.249Z,100762.38
2018-07-17T09:55:08.391Z,100761.97
2018-07-17T09:57:37.528Z,100764.64
2018-07-17T10:00:06.676Z,100764.23
2018-07-17T10:02:35.794Z,100768.72
2018-07-17T10:05:04.933Z,100763.28
2018-07-17T10:07:34.049Z,100766.05
2018-07-17T10:10:03.167Z,100767.59
2018-07-17T10:12:32.293Z,100766.80
2018-07-17T10:15:01.409Z,100757.55
2018-07-17T10:17:30.552Z,100761.25
2018-07-17T10:19:59.836Z,100759.75
2018-07-17T10:22:28.849Z,100760.00
2018-07-17T10:24:57.953Z,100760.27
2018-07-17T10:27:27.083Z,100756.70
2018-07-17T10:29:56.209Z,100764.09
2018-07-17T10:32:25.398Z,100765.94
2018-07-17T10:34:54.685Z,100763.41
2018-07-17T10:37:23.892Z,100757.17
2018-07-17T10:39:53.000Z,100758.21
2018-07-17T10:42:22.193Z,100758.30
2018-07-17T10:44:51.341Z,100760.67
2018-07-17T10:47:20.533Z,100757.78
2018-07-17T10:49:49.713Z,100772.55
2018-07-17T10:52:18.874Z,100762.66
2018-07-17T10:54:48.100Z,100758.45
2018-07-17T10:57:17.466Z,100761.17
2018-07-17T10:59:46.654Z,100752.86
2018-07-17T11:02:18.426Z,100766.50
2018-07-17T11:04:47.591Z,100757.58
2018-07-17T11:07:16.790Z,100753.55
2018-07-17T11:09:45.949Z,100752.77
2018-07-17T11:12:15.082Z,100753.02
2018-07-17T11:14:44.229Z,100751.20
2018-07-17T11:17:13.359Z,100753.73
2018-07-17T11:19:42.497Z,100743.02
2018-07-17T11:22:11.647Z,100747.41
2018-07-17T11:24:40.761Z,100752.66
2018-07-17T11:27:09.898Z,100745.34
2018-07-17T11:29:39.029Z,100725.48
2018-07-17T11:32:08.149Z,100734.74
2018-07-17T11:34:37.265Z,100734.00
2018-07-17T11:37:06.414Z,100730.37
2018-07-17T11:39:35.517Z,100727.11
2018-07-17T11:42:04.655Z,100718.84
2018-07-17T11:44:33.836Z,100719.20
2018-07-17T11:47:02.982Z,100715.11
2018-07-17T11:49:32.138Z,100720.99
2018-07-17T11:52:01.246Z,100711.73
2018-07-17T11:54:30.402Z,100720.51
2018-07-17T11:56:59.505Z,100716.66
2018-07-17T11:59:28.667Z,100711.03
2018-07-17T12:01:57.734Z,100706.63
2018-07-17T12:04:26.846Z,100712.89
2018-07-17T12:06:55.965Z,100703.27
2018-07-17T12:09:25.070Z,100702.91
2018-07-17T12:12:12.201Z,100711.58
2018-07-17T12:14:41.297Z,100703.58
2018-07-17T12:17:10.520Z,100711.27
2018-07-17T12:19:39.654Z,100706.97
2018-07-17T12:22:08.770Z,100702.13
2018-07-17T12:24:37.918Z,100710.60
2018-07-17T12:27:07.061Z,100714.73
2018-07-17T12:29:36.170Z,100713.53
2018-07-17T12:32:05.311Z,100709.14
2018-07-17T12:34:35.577Z,100714.14
2018-07-17T12:37:04.753Z,100721.89
2018-07-17T12:39:33.865Z,100713.28
2018-07-17T12:42:03.039Z,100723.03
2018-07-17T12:44:32.189Z,100725.88
2018-07-17T12:47:01.309Z,100719.77
2018-07-17T12:49:30.410Z,100715.28
2018-07-17T12:51:59.849Z,100718.28
2018-07-17T12:54:28.989Z,100713.70
2018-07-17T12:56:58.084Z,100731.05
2018-07-17T12:59:27.220Z,100724.08
2018-07-17T13:01:56.357Z,100721.83
2018-07-17T13:04:25.491Z,100723.72
2018-07-17T13:06:54.613Z,100727.39
2018-07-17T13:09:23.905Z,100735.81
2018-07-17T13:11:52.881Z,100738.49
2018-07-17T13:14:22.203Z,100734.09
2018-07-17T13:16:51.327Z,100738.58
2018-07-17T13:19:20.486Z,100742.22
2018-07-17T13:21:49.643Z,100747.25
2018-07-17T13:24:18.829Z,100750.36
2018-07-17T13:26:47.961Z,100745.50
2018-07-17T13:29:17.077Z,100752.88
2018-07-17T13:31:47.502Z,100761.38
2018-07-17T13:34:16.721Z,100768.65
2018-07-17T13:36:45.812Z,100779.37
2018-07-17T13:39:15.050Z,100784.16
2018-07-17T13:41:44.106Z,100782.25
2018-07-17T13:44:13.222Z,100779.78
2018-07-17T13:46:42.338Z,100780.36
2018-07-17T13:49:11.449Z,100780.14
2018-07-17T13:51:40.844Z,100775.22
2018-07-17T13:54:10.025Z,100782.86
2018-07-17T13:56:39.209Z,100780.70
2018-07-17T13:59:08.369Z,100781.95
2018-07-17T14:01:37.526Z,100771.77
2018-07-17T14:04:06.714Z,100768.02
2018-07-17T14:06:35.834Z,100769.42
2018-07-17T14:09:07.326Z,100765.42
2018-07-17T14:11:36.693Z,100761.91
2018-07-17T14:14:05.864Z,100761.52
2018-07-17T14:16:35.037Z,100762.65
2018-07-17T14:19:04.220Z,100770.08
2018-07-17T14:21:33.313Z,100770.06
2018-07-17T14:24:02.441Z,100766.91
2018-07-17T14:26:31.573Z,100769.88
2018-07-17T14:29:04.189Z,100764.77
2018-07-17T14:31:33.357Z,100760.64
2018-07-17T14:34:02.453Z,100759.65
2018-07-17T14:36:31.541Z,100760.92
2018-07-17T14:39:00.657Z,100762.54
2018-07-17T14:41:29.777Z,100752.39
2018-07-17T14:43:58.904Z,100747.18
2018-07-17T14:46:28.009Z,100747.62
2018-07-17T14:48:57.129Z,100749.17
2018-07-17T14:51:26.245Z,100751.17
2018-07-17T14:53:55.352Z,100744.80
2018-07-17T14:56:24.477Z,100744.60
2018-07-17T14:58:53.574Z,100744.89
2018-07-17T15:01:22.732Z,100733.56
2018-07-17T15:03:51.841Z,100737.73
2018-07-17T15:06:20.961Z,100738.77
2018-07-17T15:08:50.052Z,100740.72
2018-07-17T15:11:19.189Z,100734.91
2018-07-17T15:13:48.289Z,100724.42
2018-07-17T15:16:17.405Z,100726.62
2018-07-17T15:18:48.709Z,100731.39
2018-07-17T15:21:17.881Z,100729.11
2018-07-17T15:23:46.985Z,100727.52
2018-07-17T15:26:16.105Z,100721.15
2018-07-17T15:28:45.219Z,100726.95
2018-07-17T15:31:14.318Z,100722.81
2018-07-17T15:33:43.465Z,100724.73
2018-07-17T15:36:12.613Z,100718.27
2018-07-17T15:38:41.747Z,100719.74
2018-07-17T15:41:10.869Z,100723.78
2018-07-17T15:43:40.006Z,100716.41
2018-07-17T15:46:09.153Z,100721.11
2018-07-17T15:48:38.289Z,100716.98
2018-07-17T15:51:07.441Z,100714.48
2018-07-17T15:53:36.556Z,100711.22
2018-07-17T15:56:05.687Z,100712.69
2018-07-17T15:58:34.819Z,100710.50
2018-07-17T16:01:04.025Z,100718.23
2018-07-17T16:03:33.153Z,100710.59
2018-07-17T16:06:02.328Z,100713.81
2018-07-17T16:08:31.505Z,100710.16
2018-07-17T16:11:00.597Z,100711.40
2018-07-17T16:13:29.843Z,100704.34
2018-07-17T16:15:58.798Z,100702.25
2018-07-17T16:18:27.900Z,100703.73
2018-07-17T16:20:57.013Z,100707.22
2018-07-17T16:23:26.092Z,100713.69
2018-07-17T16:25:55.198Z,100712.82
2018-07-17T16:28:24.278Z,100714.11
2018-07-17T16:30:53.381Z,100730.20
2018-07-17T16:33:22.480Z,100775.52
2018-07-17T16:35:51.584Z,100802.00
2018-07-17T16:38:20.710Z,100833.99
2018-07-17T16:40:49.805Z,100867.47
2018-07-17T16:43:18.897Z,100864.52
2018-07-17T16:45:47.993Z,100863.64
2018-07-17T16:48:17.095Z,100868.30
2018-07-17T16:50:46.175Z,100878.66
2018-07-17T16:53:15.267Z,100882.39
2018-07-17T16:55:44.368Z,100880.55
2018-07-17T16:58:13.464Z,100882.88
2018-07-17T17:00:42.568Z,100892.67
2018-07-17T17:03:11.653Z,100899.66
2018-07-17T17:05:40.873Z,100915.98
2018-07-17T17:08:10.069Z,100924.02
2018-07-17T17:10:39.144Z,100923.03
2018-07-17T17:13:08.228Z,100933.70
2018-07-17T17:15:37.361Z,100921.63
2018-07-17T17:18:06.464Z,100915.84
2018-07-17T17:20:35.601Z,100920.48
2018-07-17T17:23:04.849Z,100914.10
2018-07-17T17:25:33.946Z,100905.86
2018-07-17T17:28:03.021Z,100894.13
2018-07-17T17:30:32.128Z,100911.17
2018-07-17T17:33:01.218Z,100906.88
2018-07-17T17:35:30.325Z,100902.77
2018-07-17T17:37:59.417Z,100896.33
2018-07-17T17:40:28.516Z,100884.14
2018-07-17T17:42:57.581Z,100889.78
2018-07-17T17:45:27.266Z,100884.69
2018-07-17T17:47:56.289Z,100885.16
2018-07-17T17:50:25.381Z,100890.31
2018-07-17T17:52:54.469Z,100884.13
2018-07-17T17:55:23.554Z,100889.96
2018-07-17T17:57:52.637Z,100892.32
2018-07-17T18:00:21.758Z,100894.27
2018-07-17T18:02:50.846Z,100904.61
2018-07-17T18:05:19.933Z,100898.59
2018-07-17T18:07:49.066Z,100894.19
2018-07-17T18:10:18.228Z,100902.31
2018-07-17T18:12:47.369Z,100892.44
2018-07-17T18:15:16.473Z,100889.19
2018-07-17T18:17:45.566Z,100894.28
2018-07-17T18:20:14.680Z,100901.36
2018-07-17T18:22:43.823Z,100905.24
2018-07-17T18:25:12.921Z,100900.31
2018-07-17T18:27:42.017Z,100904.69
2018-07-17T18:30:11.131Z,100904.61
2018-07-17T18:32:40.201Z,100909.89
2018-07-17T18:35:09.309Z,100905.40
2018-07-17T18:37:38.473Z,100906.25
2018-07-17T18:40:07.602Z,100907.72
2018-07-17T18:42:36.784Z,100915.25
2018-07-17T18:45:05.913Z,100918.06
2018-07-17T18:47:35.212Z,100929.68
2018-07-17T18:50:12.858Z,100923.70
2018-07-17T18:52:33.501Z,100920.66
2018-07-17T18:55:02.737Z,100926.48
2018-07-17T18:57:31.818Z,100927.47
2018-07-17T19:00:00.907Z,100935.66
2018-07-17T19:02:30.000Z,100936.42
2018-07-17T19:04:59.089Z,100952.98
2018-07-17T19:07:28.165Z,100951.08
2018-07-17T19:09:57.240Z,100952.94
2018-07-17T19:12:26.474Z,100955.17
2018-07-17T19:14:55.478Z,100948.73
2018-07-17T19:17:24.570Z,100946.52
2018-07-17T19:19:53.742Z,100947.77
2018-07-17T19:22:22.969Z,100959.35
2018-07-17T19:24:54.412Z,100955.09
2018-07-17T19:27:23.641Z,100966.00
2018-07-17T19:29:52.857Z,100957.67
2018-07-17T19:32:22.102Z,100956.06
2018-07-17T19:34:51.197Z,100955.33
2018-07-17T19:37:20.542Z,100955.29
2018-07-17T19:39:49.717Z,100960.20
2018-07-17T19:42:18.847Z,100949.14
2018-07-17T19:44:48.179Z,100962.39
2018-07-17T19:47:17.481Z,100960.80
2018-07-17T19:49:47.049Z,100961.34
2018-07-17T19:52:16.347Z,100962.66
2018-07-17T19:54:45.497Z,100954.70
2018-07-17T19:57:14.801Z,100960.02
2018-07-17T19:59:44.214Z,100965.22
2018-07-17T20:02:13.735Z,100961.58
2018-07-17T20:04:43.216Z,100973.92
2018-07-17T20:07:12.716Z,100972.66
2018-07-17T20:09:42.211Z,100964.27
2018-07-17T20:12:17.106Z,100971.75
2018-07-17T20:14:46.188Z,100965.34
2018-07-17T20:17:15.310Z,100973.19
2018-07-17T20:19:44.445Z,100976.91
2018-07-17T20:22:13.582Z,100974.91
2018-07-17T20:24:42.986Z,100976.88
2018-07-17T20:27:12.135Z,100979.88
2018-07-17T20:29:41.248Z,100982.41
2018-07-17T20:32:10.421Z,100989.23
2018-07-17T20:34:39.554Z,100997.84
2018-07-17T20:37:08.698Z,100996.61
2018-07-17T20:39:37.882Z,101002.63
2018-07-17T20:42:06.998Z,101003.63
2018-07-17T20:44:36.141Z,101004.41
2018-07-17T20:47:05.252Z,101003.95
2018-07-17T20:49:34.397Z,101008.28
2018-07-17T20:52:03.628Z,101010.20
2018-07-17T20:54:32.814Z,101009.75
2018-07-17T20:57:01.905Z,101012.86
2018-07-17T20:59:31.033Z,101015.11
2018-07-17T21:02:00.121Z,101013.68
2018-07-17T21:04:29.237Z,101019.55
2018-07-17T21:06:58.337Z,101024.41
2018-07-17T21:09:27.465Z,101024.17
2018-07-17T21:11:56.561Z,101030.45
2018-07-17T21:14:25.675Z,101033.28
2018-07-17T21:16:54.790Z,101033.83
2018-07-17T21:19:23.888Z,101038.90
2018-07-17T21:21:53.129Z,101038.33
2018-07-17T21:24:22.229Z,101041.28
2018-07-17T21:26:51.341Z,101059.48
2018-07-17T21:29:20.411Z,101053.34
2018-07-17T21:31:49.502Z,101057.11
2018-07-17T21:34:18.587Z,101050.87
2018-07-17T21:36:47.745Z,101066.45
2018-07-17T21:39:17.234Z,101058.58
2018-07-17T21:41:46.321Z,101064.20
2018-07-17T21:44:15.522Z,101062.56
2018-07-17T21:46:44.608Z,101060.54
2018-07-17T21:49:13.740Z,101070.50
2018-07-17T21:51:42.808Z,101066.66
2018-07-17T21:54:12.012Z,101077.78
2018-07-17T21:56:41.086Z,101073.66
2018-07-17T21:59:10.197Z,101072.48
2018-07-17T22:01:39.285Z,101070.72
2018-07-17T22:04:08.465Z,101074.86
2018-07-17T22:06:37.577Z,101074.13
2018-07-17T22:09:09.219Z,101077.23
2018-07-17T22:11:38.485Z,101076.56
2018-07-17T22:14:07.589Z,101079.62
2018-07-17T22:16:36.678Z,101078.32
2018-07-17T22:19:06.374Z,101078.97
2018-07-17T22:21:35.496Z,101077.47
2018-07-17T22:24:04.638Z,101076.41
2018-07-17T22:26:33.750Z,101090.19
2018-07-17T22:29:02.864Z,101091.31
2018-07-17T22:31:31.956Z,101089.27
2018-07-17T22:34:01.081Z,101096.68
2018-07-17T22:36:30.161Z,101096.45
2018-07-17T22:39:01.002Z,101091.86
2018-07-17T22:41:30.085Z,101099.83
2018-07-17T22:43:59.541Z,101102.42
2018-07-17T22:46:28.669Z,101105.77
2018-07-17T22:49:00.729Z,101105.05
2018-07-17T22:51:30.100Z,101102.42
2018-07-17T22:53:59.213Z,101107.30
2018-07-17T22:56:28.305Z,101104.81
2018-07-17T22:58:57.405Z,101106.31
2018-07-17T23:01:26.600Z,101104.67
2018-07-17T23:03:55.675Z,101108.95
2018-07-17T23:06:25.077Z,101105.51
2018-07-17T23:08:54.213Z,101112.73
2018-07-17T23:11:23.901Z,101111.69
2018-07-17T23:13:52.997Z,101117.69
2018-07-17T23:16:22.129Z,101126.80
2018-07-17T23:18:51.274Z,101124.25
2018-07-17T23:21:20.394Z,101119.65
2018-07-17T23:23:49.489Z,101119.45
2018-07-17T23:26:18.629Z,101122.52
2018-07-17T23:28:47.760Z,101120.88
2018-07-17T23:31:16.869Z,101125.48
2018-07-17T23:33:46.018Z,101126.05
2018-07-17T23:36:15.105Z,101124.25
2018-07-17T23:38:44.218Z,101128.53
2018-07-17T23:41:13.334Z,101139.87
2018-07-17T23:43:42.425Z,101135.61
2018-07-17T23:46:11.538Z,101132.45
2018-07-17T23:48:40.649Z,101133.85
2018-07-17T23:51:09.745Z,101140.09
2018-07-17T23:53:38.833Z,101134.67
2018-07-17T23:56:08.013Z,101139.61
2018-07-17T23:58:37.106Z,101138.16
